Capitol Logistics 7445

Operating for MZN



KPDX
Portland International Airport
Portland, Oregon
KBWI
Baltimore/Washington International Thurgood Marshall Airport
Baltimore, Maryland

Activity Log

Date Flight Route Aircraft Duration
06/08/2021 CPX7445 LAVAA6 LAVAA J16 DPR MCW DBQ JOT J30 WHETT J64 FWA AIR KEMAN ANTHM3 A30F 4h 46m

Route Details

Aircraft Information
Primary: Boeing 767-300BDSF
Backup: Airbus A300-600F
Route Data
Distance: 2046nm
Duration: 4h 26m
Recm'd Route: BTG J16 PDT J16 BIL J16 DPR MCW DBQ JOT J30 MOPER J30 WHETT J64 FWA AIR KEMAN ANTHM3
Origin Wx: KPDX 020453Z 33007KT 10SM FEW150 FEW250 22/15 A3006 RMK AO2 SLP177 T02220150
Dest. Wx: KBWI 020454Z 30004KT 10SM FEW080 19/18 A2990 RMK AO2 SLP123 T01890178 402500189
Notes: